sensor_id;sensor_type;location;lat;lon;timestamp;pressure;altitude;pressure_sealevel;temperature;humidity
78839;BME280;68405;47.190;27.558;2023-04-15T00:00:13;99028.85;;;9.70;69.41
78839;BME280;68405;47.190;27.558;2023-04-15T00:03:04;99026.59;;;9.66;70.45
78839;BME280;68405;47.190;27.558;2023-04-15T00:05:37;99030.54;;;9.63;69.37
78839;BME280;68405;47.190;27.558;2023-04-15T00:08:08;99041.91;;;9.61;68.96
78839;BME280;68405;47.190;27.558;2023-04-15T00:10:40;99053.89;;;9.60;67.33
78839;BME280;68405;47.190;27.558;2023-04-15T00:13:13;99058.52;;;9.61;67.84
78839;BME280;68405;47.190;27.558;2023-04-15T00:15:45;99053.09;;;9.63;68.64
78839;BME280;68405;47.190;27.558;2023-04-15T00:18:17;99044.48;;;9.61;68.63
78839;BME280;68405;47.190;27.558;2023-04-15T00:20:49;99046.59;;;9.61;68.67
78839;BME280;68405;47.190;27.558;2023-04-15T00:23:21;99055.79;;;9.61;67.45
78839;BME280;68405;47.190;27.558;2023-04-15T00:25:53;99059.74;;;9.61;67.11
78839;BME280;68405;47.190;27.558;2023-04-15T00:28:24;99071.63;;;9.63;66.76
78839;BME280;68405;47.190;27.558;2023-04-15T00:30:57;99080.02;;;9.65;64.93
78839;BME280;68405;47.190;27.558;2023-04-15T00:33:28;99078.54;;;9.67;67.01
78839;BME280;68405;47.190;27.558;2023-04-15T00:36:00;99071.02;;;9.69;64.78
78839;BME280;68405;47.190;27.558;2023-04-15T00:38:31;99066.07;;;9.72;65.07
78839;BME280;68405;47.190;27.558;2023-04-15T00:41:03;99065.38;;;9.75;65.75
78839;BME280;68405;47.190;27.558;2023-04-15T00:43:35;99060.00;;;9.79;65.80
78839;BME280;68405;47.190;27.558;2023-04-15T00:46:07;99055.62;;;9.80;66.89
78839;BME280;68405;47.190;27.558;2023-04-15T00:48:39;99048.23;;;9.79;67.10
78839;BME280;68405;47.190;27.558;2023-04-15T00:51:11;99046.96;;;9.76;67.45
78839;BME280;68405;47.190;27.558;2023-04-15T00:53:43;99045.89;;;9.73;67.25
78839;BME280;68405;47.190;27.558;2023-04-15T00:56:15;99044.55;;;9.68;68.68
78839;BME280;68405;47.190;27.558;2023-04-15T00:58:46;99042.08;;;9.61;69.76
78839;BME280;68405;47.190;27.558;2023-04-15T01:01:21;99036.92;;;9.52;70.72
78839;BME280;68405;47.190;27.558;2023-04-15T01:03:53;99047.31;;;9.40;72.37
78839;BME280;68405;47.190;27.558;2023-04-15T01:06:26;99052.86;;;9.28;71.17
78839;BME280;68405;47.190;27.558;2023-04-15T01:08:58;99042.67;;;9.19;74.04
78839;BME280;68405;47.190;27.558;2023-04-15T01:11:32;99037.55;;;9.09;73.57
78839;BME280;68405;47.190;27.558;2023-04-15T01:14:04;99036.23;;;8.99;73.79
78839;BME280;68405;47.190;27.558;2023-04-15T01:16:36;99033.95;;;8.91;75.10
78839;BME280;68405;47.190;27.558;2023-04-15T01:19:11;99033.33;;;8.81;75.33
78839;BME280;68405;47.190;27.558;2023-04-15T01:21:45;99037.70;;;8.71;75.96
78839;BME280;68405;47.190;27.558;2023-04-15T01:24:18;99031.43;;;8.63;78.45
78839;BME280;68405;47.190;27.558;2023-04-15T01:26:50;99032.08;;;8.56;76.70
78839;BME280;68405;47.190;27.558;2023-04-15T01:29:22;99046.92;;;8.48;77.69
78839;BME280;68405;47.190;27.558;2023-04-15T01:31:54;99058.90;;;8.42;78.43
78839;BME280;68405;47.190;27.558;2023-04-15T01:34:26;99058.55;;;8.37;76.99
78839;BME280;68405;47.190;27.558;2023-04-15T01:36:58;99067.08;;;8.32;75.35
78839;BME280;68405;47.190;27.558;2023-04-15T01:39:29;99076.52;;;8.29;78.14
78839;BME280;68405;47.190;27.558;2023-04-15T01:42:01;99071.65;;;8.25;76.39
78839;BME280;68405;47.190;27.558;2023-04-15T01:44:33;99076.49;;;8.20;74.13
78839;BME280;68405;47.190;27.558;2023-04-15T01:47:04;99074.33;;;8.18;78.95
78839;BME280;68405;47.190;27.558;2023-04-15T01:49:36;99053.98;;;8.17;80.63
78839;BME280;68405;47.190;27.558;2023-04-15T01:52:08;99043.32;;;8.15;80.21
78839;BME280;68405;47.190;27.558;2023-04-15T01:54:39;99040.21;;;8.15;79.81
78839;BME280;68405;47.190;27.558;2023-04-15T01:57:11;99034.98;;;8.16;79.01
78839;BME280;68405;47.190;27.558;2023-04-15T01:59:43;99035.81;;;8.17;78.45
78839;BME280;68405;47.190;27.558;2023-04-15T02:02:15;99035.94;;;8.18;79.15
78839;BME280;68405;47.190;27.558;2023-04-15T02:04:46;99031.63;;;8.18;78.18
78839;BME280;68405;47.190;27.558;2023-04-15T02:07:19;99030.39;;;8.18;79.07
78839;BME280;68405;47.190;27.558;2023-04-15T02:09:50;99027.69;;;8.21;78.92
78839;BME280;68405;47.190;27.558;2023-04-15T02:12:22;99018.13;;;8.22;80.07
78839;BME280;68405;47.190;27.558;2023-04-15T02:14:53;99019.43;;;8.24;80.08
78839;BME280;68405;47.190;27.558;2023-04-15T02:17:26;99023.39;;;8.26;80.59
78839;BME280;68405;47.190;27.558;2023-04-15T02:19:58;99023.49;;;8.27;79.58
78839;BME280;68405;47.190;27.558;2023-04-15T02:22:29;99013.48;;;8.31;80.44
78839;BME280;68405;47.190;27.558;2023-04-15T02:25:01;99009.63;;;8.32;80.20
78839;BME280;68405;47.190;27.558;2023-04-15T02:27:33;99016.66;;;8.33;79.30
78839;BME280;68405;47.190;27.558;2023-04-15T02:30:07;99022.47;;;8.35;80.67
78839;BME280;68405;47.190;27.558;2023-04-15T02:32:39;99027.52;;;8.38;80.28
78839;BME280;68405;47.190;27.558;2023-04-15T02:35:13;99022.13;;;8.39;79.54
78839;BME280;68405;47.190;27.558;2023-04-15T02:37:44;99017.87;;;8.43;81.17
78839;BME280;68405;47.190;27.558;2023-04-15T02:40:16;99010.25;;;8.43;79.52
78839;BME280;68405;47.190;27.558;2023-04-15T02:42:47;99007.77;;;8.45;81.19
78839;BME280;68405;47.190;27.558;2023-04-15T02:45:19;99006.17;;;8.46;81.37
78839;BME280;68405;47.190;27.558;2023-04-15T02:47:53;99009.94;;;8.47;80.14
78839;BME280;68405;47.190;27.558;2023-04-15T02:50:24;99015.48;;;8.47;80.43
78839;BME280;68405;47.190;27.558;2023-04-15T02:52:56;99009.71;;;8.48;80.17
78839;BME280;68405;47.190;27.558;2023-04-15T02:55:30;98994.48;;;8.48;79.12
78839;BME280;68405;47.190;27.558;2023-04-15T02:58:01;98982.18;;;8.49;78.38
78839;BME280;68405;47.190;27.558;2023-04-15T03:00:33;98985.75;;;8.51;81.21
78839;BME280;68405;47.190;27.558;2023-04-15T03:03:05;98986.73;;;8.52;80.54
78839;BME280;68405;47.190;27.558;2023-04-15T03:05:38;99001.44;;;8.52;81.52
78839;BME280;68405;47.190;27.558;2023-04-15T03:08:10;99010.71;;;8.53;79.80
78839;BME280;68405;47.190;27.558;2023-04-15T03:10:41;99025.35;;;8.55;78.93
78839;BME280;68405;47.190;27.558;2023-04-15T03:13:13;99035.30;;;8.58;78.17
78839;BME280;68405;47.190;27.558;2023-04-15T03:15:45;99051.27;;;8.61;77.89
78839;BME280;68405;47.190;27.558;2023-04-15T03:18:17;99065.93;;;8.62;77.27
78839;BME280;68405;47.190;27.558;2023-04-15T03:20:48;99083.30;;;8.65;77.70
78839;BME280;68405;47.190;27.558;2023-04-15T03:23:20;99081.34;;;8.66;76.86
78839;BME280;68405;47.190;27.558;2023-04-15T03:25:51;99070.73;;;8.68;78.23
78839;BME280;68405;47.190;27.558;2023-04-15T03:28:24;99055.10;;;8.69;79.31
78839;BME280;68405;47.190;27.558;2023-04-15T03:30:56;99049.01;;;8.69;79.21
78839;BME280;68405;47.190;27.558;2023-04-15T03:33:28;99057.77;;;8.71;79.40
78839;BME280;68405;47.190;27.558;2023-04-15T03:35:59;99070.56;;;8.72;79.91
78839;BME280;68405;47.190;27.558;2023-04-15T03:38:31;99075.73;;;8.72;80.65
78839;BME280;68405;47.190;27.558;2023-04-15T03:41:02;99070.91;;;8.72;80.08
78839;BME280;68405;47.190;27.558;2023-04-15T03:43:34;99068.91;;;8.75;78.91
78839;BME280;68405;47.190;27.558;2023-04-15T03:46:05;99068.90;;;8.75;79.69
78839;BME280;68405;47.190;27.558;2023-04-15T03:48:37;99074.55;;;8.76;79.67
78839;BME280;68405;47.190;27.558;2023-04-15T03:51:08;99070.85;;;8.78;79.74
78839;BME280;68405;47.190;27.558;2023-04-15T03:53:40;99064.76;;;8.79;79.42
78839;BME280;68405;47.190;27.558;2023-04-15T03:56:12;99066.60;;;8.80;79.54
78839;BME280;68405;47.190;27.558;2023-04-15T03:58:43;99076.06;;;8.82;78.33
78839;BME280;68405;47.190;27.558;2023-04-15T04:01:15;99095.55;;;8.83;78.34
78839;BME280;68405;47.190;27.558;2023-04-15T04:03:47;99110.36;;;8.85;78.24
78839;BME280;68405;47.190;27.558;2023-04-15T04:06:19;99117.85;;;8.89;77.27
78839;BME280;68405;47.190;27.558;2023-04-15T04:08:50;99122.42;;;8.91;78.20
78839;BME280;68405;47.190;27.558;2023-04-15T04:11:22;99130.81;;;8.94;77.86
78839;BME280;68405;47.190;27.558;2023-04-15T04:13:53;99137.14;;;8.95;77.25
78839;BME280;68405;47.190;27.558;2023-04-15T04:16:25;99141.95;;;8.97;75.93
78839;BME280;68405;47.190;27.558;2023-04-15T04:18:56;99133.91;;;8.99;76.20
78839;BME280;68405;47.190;27.558;2023-04-15T04:21:28;99131.02;;;9.01;76.57
78839;BME280;68405;47.190;27.558;2023-04-15T04:24:01;99133.88;;;9.04;78.15
78839;BME280;68405;47.190;27.558;2023-04-15T04:26:32;99134.05;;;9.04;77.93
78839;BME280;68405;47.190;27.558;2023-04-15T04:29:04;99128.60;;;9.06;79.25
78839;BME280;68405;47.190;27.558;2023-04-15T04:31:36;99129.71;;;9.09;77.53
78839;BME280;68405;47.190;27.558;2023-04-15T04:34:07;99129.59;;;9.12;78.14
78839;BME280;68405;47.190;27.558;2023-04-15T04:36:39;99128.80;;;9.14;78.11
78839;BME280;68405;47.190;27.558;2023-04-15T04:39:10;99137.00;;;9.17;78.98
78839;BME280;68405;47.190;27.558;2023-04-15T04:41:42;99146.33;;;9.17;78.00
78839;BME280;68405;47.190;27.558;2023-04-15T04:44:14;99152.12;;;9.20;77.14
78839;BME280;68405;47.190;27.558;2023-04-15T04:46:46;99152.86;;;9.23;77.30
78839;BME280;68405;47.190;27.558;2023-04-15T04:49:17;99148.80;;;9.25;78.31
78839;BME280;68405;47.190;27.558;2023-04-15T04:51:49;99153.11;;;9.29;77.63
78839;BME280;68405;47.190;27.558;2023-04-15T04:54:21;99156.05;;;9.34;77.13
78839;BME280;68405;47.190;27.558;2023-04-15T04:56:52;99154.86;;;9.38;76.35
78839;BME280;68405;47.190;27.558;2023-04-15T04:59:24;99150.84;;;9.43;76.86
78839;BME280;68405;47.190;27.558;2023-04-15T05:01:55;99149.40;;;9.48;77.09
78839;BME280;68405;47.190;27.558;2023-04-15T05:04:27;99146.45;;;9.57;76.86
78839;BME280;68405;47.190;27.558;2023-04-15T05:07:00;99145.52;;;9.62;77.44
78839;BME280;68405;47.190;27.558;2023-04-15T05:09:31;99145.35;;;9.70;77.16
78839;BME280;68405;47.190;27.558;2023-04-15T05:12:05;99146.83;;;9.77;77.48
78839;BME280;68405;47.190;27.558;2023-04-15T05:14:37;99141.00;;;9.83;76.55
78839;BME280;68405;47.190;27.558;2023-04-15T05:17:09;99130.33;;;9.93;76.64
78839;BME280;68405;47.190;27.558;2023-04-15T05:19:41;99122.57;;;10.11;76.61
78839;BME280;68405;47.190;27.558;2023-04-15T05:22:13;99127.87;;;10.29;76.35
78839;BME280;68405;47.190;27.558;2023-04-15T05:24:44;99136.92;;;10.52;76.57
78839;BME280;68405;47.190;27.558;2023-04-15T05:27:16;99138.63;;;10.68;75.56
78839;BME280;68405;47.190;27.558;2023-04-15T05:29:48;99139.29;;;10.83;75.33
78839;BME280;68405;47.190;27.558;2023-04-15T05:32:20;99138.60;;;10.90;75.11
78839;BME280;68405;47.190;27.558;2023-04-15T05:34:51;99139.86;;;10.93;74.30
78839;BME280;68405;47.190;27.558;2023-04-15T05:37:23;99148.35;;;11.01;74.43
78839;BME280;68405;47.190;27.558;2023-04-15T05:39:55;99154.02;;;10.84;74.49
78839;BME280;68405;47.190;27.558;2023-04-15T05:42:27;99148.24;;;10.92;74.61
78839;BME280;68405;47.190;27.558;2023-04-15T05:44:58;99145.56;;;11.05;74.60
78839;BME280;68405;47.190;27.558;2023-04-15T05:47:30;99151.27;;;11.09;74.16
78839;BME280;68405;47.190;27.558;2023-04-15T05:50:02;99154.92;;;10.91;74.70
78839;BME280;68405;47.190;27.558;2023-04-15T05:52:34;99158.95;;;10.86;75.25
78839;BME280;68405;47.190;27.558;2023-04-15T05:55:07;99168.42;;;10.84;75.48
78839;BME280;68405;47.190;27.558;2023-04-15T05:57:38;99174.67;;;10.80;75.20
78839;BME280;68405;47.190;27.558;2023-04-15T06:00:12;99180.91;;;10.81;75.48
78839;BME280;68405;47.190;27.558;2023-04-15T06:02:44;99180.77;;;10.69;75.91
78839;BME280;68405;47.190;27.558;2023-04-15T06:05:16;99181.83;;;10.80;75.63
78839;BME280;68405;47.190;27.558;2023-04-15T06:07:48;99178.61;;;10.67;76.20
78839;BME280;68405;47.190;27.558;2023-04-15T06:10:20;99167.27;;;10.90;75.92
78839;BME280;68405;47.190;27.558;2023-04-15T06:12:53;99166.45;;;11.18;75.09
78839;BME280;68405;47.190;27.558;2023-04-15T06:15:24;99159.85;;;11.40;74.64
78839;BME280;68405;47.190;27.558;2023-04-15T06:17:56;99166.41;;;11.44;73.75
78839;BME280;68405;47.190;27.558;2023-04-15T06:20:28;99171.39;;;11.45;73.98
78839;BME280;68405;47.190;27.558;2023-04-15T06:23:00;99171.46;;;11.30;74.54
78839;BME280;68405;47.190;27.558;2023-04-15T06:25:31;99177.86;;;11.34;74.49
78839;BME280;68405;47.190;27.558;2023-04-15T06:28:03;99170.98;;;11.32;74.50
78839;BME280;68405;47.190;27.558;2023-04-15T06:30:35;99159.27;;;11.41;74.55
78839;BME280;68405;47.190;27.558;2023-04-15T06:33:07;99168.67;;;11.41;74.29
78839;BME280;68405;47.190;27.558;2023-04-15T06:35:39;99166.61;;;11.65;73.86
78839;BME280;68405;47.190;27.558;2023-04-15T06:38:11;99169.05;;;12.06;72.68
78839;BME280;68405;47.190;27.558;2023-04-15T06:40:44;99172.65;;;12.44;71.56
78839;BME280;68405;47.190;27.558;2023-04-15T06:43:16;99177.23;;;12.46;71.51
78839;BME280;68405;47.190;27.558;2023-04-15T06:45:47;99188.73;;;12.59;71.64
78839;BME280;68405;47.190;27.558;2023-04-15T06:48:19;99205.41;;;12.70;70.66
78839;BME280;68405;47.190;27.558;2023-04-15T06:50:51;99218.29;;;12.76;69.65
78839;BME280;68405;47.190;27.558;2023-04-15T06:53:23;99222.23;;;12.68;69.84
78839;BME280;68405;47.190;27.558;2023-04-15T06:55:54;99215.48;;;12.76;69.91
78839;BME280;68405;47.190;27.558;2023-04-15T06:58:26;99208.63;;;12.97;70.02
78839;BME280;68405;47.190;27.558;2023-04-15T07:00:58;99207.16;;;13.17;69.39
78839;BME280;68405;47.190;27.558;2023-04-15T07:03:30;99207.16;;;13.23;68.38
78839;BME280;68405;47.190;27.558;2023-04-15T07:06:01;99207.23;;;13.35;68.19
78839;BME280;68405;47.190;27.558;2023-04-15T07:08:35;99212.52;;;13.37;68.44
78839;BME280;68405;47.190;27.558;2023-04-15T07:11:07;99221.73;;;13.09;68.81
78839;BME280;68405;47.190;27.558;2023-04-15T07:13:38;99218.36;;;13.10;69.20
78839;BME280;68405;47.190;27.558;2023-04-15T07:16:10;99213.36;;;13.28;69.07
78839;BME280;68405;47.190;27.558;2023-04-15T07:18:42;99214.48;;;13.85;67.66
78839;BME280;68405;47.190;27.558;2023-04-15T07:21:13;99223.77;;;14.86;64.81
78839;BME280;68405;47.190;27.558;2023-04-15T07:23:45;99235.66;;;14.92;63.75
78839;BME280;68405;47.190;27.558;2023-04-15T07:26:17;99235.75;;;15.13;62.62
78839;BME280;68405;47.190;27.558;2023-04-15T07:28:48;99235.44;;;15.18;62.50
78839;BME280;68405;47.190;27.558;2023-04-15T07:31:20;99239.98;;;15.04;63.42
78839;BME280;68405;47.190;27.558;2023-04-15T07:33:52;99246.68;;;14.80;63.79
78839;BME280;68405;47.190;27.558;2023-04-15T07:36:23;99243.66;;;14.15;65.40
78839;BME280;68405;47.190;27.558;2023-04-15T07:38:55;99247.08;;;14.04;66.47
78839;BME280;68405;47.190;27.558;2023-04-15T07:41:28;99250.11;;;14.06;66.55
78839;BME280;68405;47.190;27.558;2023-04-15T07:43:59;99255.13;;;13.70;66.81
78839;BME280;68405;47.190;27.558;2023-04-15T07:46:31;99254.77;;;13.24;68.50
78839;BME280;68405;47.190;27.558;2023-04-15T07:49:03;99255.55;;;13.35;68.46
78839;BME280;68405;47.190;27.558;2023-04-15T07:51:34;99259.23;;;13.18;69.05
78839;BME280;68405;47.190;27.558;2023-04-15T07:54:06;99261.09;;;12.94;69.82
78839;BME280;68405;47.190;27.558;2023-04-15T07:56:38;99253.95;;;12.88;69.70
78839;BME280;68405;47.190;27.558;2023-04-15T07:59:10;99257.39;;;12.75;70.57
78839;BME280;68405;47.190;27.558;2023-04-15T08:01:42;99265.11;;;12.68;71.32
78839;BME280;68405;47.190;27.558;2023-04-15T08:04:14;99266.11;;;12.68;71.12
78839;BME280;68405;47.190;27.558;2023-04-15T08:06:45;99269.96;;;12.71;71.11
78839;BME280;68405;47.190;27.558;2023-04-15T08:09:19;99272.66;;;12.56;71.96
78839;BME280;68405;47.190;27.558;2023-04-15T08:11:50;99273.70;;;12.66;70.56
78839;BME280;68405;47.190;27.558;2023-04-15T08:14:22;99273.55;;;12.66;70.59
78839;BME280;68405;47.190;27.558;2023-04-15T08:16:54;99275.10;;;12.56;71.53
78839;BME280;68405;47.190;27.558;2023-04-15T08:19:26;99283.55;;;12.65;71.37
78839;BME280;68405;47.190;27.558;2023-04-15T08:21:57;99291.59;;;12.61;71.40
78839;BME280;68405;47.190;27.558;2023-04-15T08:24:30;99284.45;;;12.61;71.49
78839;BME280;68405;47.190;27.558;2023-04-15T08:27:02;99278.08;;;12.49;71.53
78839;BME280;68405;47.190;27.558;2023-04-15T08:29:35;99285.85;;;12.50;71.91
78839;BME280;68405;47.190;27.558;2023-04-15T08:32:07;99285.54;;;12.57;72.22
78839;BME280;68405;47.190;27.558;2023-04-15T08:34:39;99282.70;;;12.75;71.32
78839;BME280;68405;47.190;27.558;2023-04-15T08:37:11;99283.56;;;12.91;71.04
78839;BME280;68405;47.190;27.558;2023-04-15T08:39:43;99279.33;;;12.92;70.82
78839;BME280;68405;47.190;27.558;2023-04-15T08:42:18;99280.50;;;12.83;71.27
78839;BME280;68405;47.190;27.558;2023-04-15T08:44:55;99282.36;;;12.90;70.93
78839;BME280;68405;47.190;27.558;2023-04-15T08:47:31;99282.99;;;12.95;70.87
78839;BME280;68405;47.190;27.558;2023-04-15T08:50:05;99279.02;;;12.88;71.43
78839;BME280;68405;47.190;27.558;2023-04-15T08:52:39;99279.42;;;12.70;71.75
78839;BME280;68405;47.190;27.558;2023-04-15T08:55:12;99280.69;;;12.83;71.36
78839;BME280;68405;47.190;27.558;2023-04-15T08:57:45;99288.55;;;12.76;71.88
78839;BME280;68405;47.190;27.558;2023-04-15T09:00:17;99290.69;;;12.62;72.15
78839;BME280;68405;47.190;27.558;2023-04-15T09:02:49;99291.09;;;12.40;72.97
78839;BME280;68405;47.190;27.558;2023-04-15T09:05:21;99300.17;;;12.33;73.42
78839;BME280;68405;47.190;27.558;2023-04-15T09:07:52;99304.44;;;12.28;73.74
78839;BME280;68405;47.190;27.558;2023-04-15T09:10:24;99297.77;;;12.22;73.77
78839;BME280;68405;47.190;27.558;2023-04-15T09:12:57;99290.08;;;12.19;73.80
78839;BME280;68405;47.190;27.558;2023-04-15T09:15:29;99282.73;;;12.16;74.10
78839;BME280;68405;47.190;27.558;2023-04-15T09:18:01;99271.08;;;12.30;73.69
78839;BME280;68405;47.190;27.558;2023-04-15T09:20:39;99268.73;;;12.41;73.45
78839;BME280;68405;47.190;27.558;2023-04-15T09:23:15;99276.09;;;12.51;73.25
78839;BME280;68405;47.190;27.558;2023-04-15T09:25:47;99290.70;;;12.58;73.29
78839;BME280;68405;47.190;27.558;2023-04-15T09:28:27;99291.95;;;12.64;73.25
78839;BME280;68405;47.190;27.558;2023-04-15T09:31:01;99290.55;;;12.71;72.46
78839;BME280;68405;47.190;27.558;2023-04-15T09:33:33;99291.14;;;12.80;72.53
78839;BME280;68405;47.190;27.558;2023-04-15T09:36:06;99288.92;;;12.82;72.40
78839;BME280;68405;47.190;27.558;2023-04-15T09:38:55;99297.26;;;12.82;72.11
78839;BME280;68405;47.190;27.558;2023-04-15T09:41:27;99290.88;;;12.91;71.65
78839;BME280;68405;47.190;27.558;2023-04-15T09:43:59;99294.44;;;12.86;71.81
78839;BME280;68405;47.190;27.558;2023-04-15T09:46:44;99294.63;;;13.02;71.66
78839;BME280;68405;47.190;27.558;2023-04-15T09:49:16;99292.23;;;13.04;71.22
78839;BME280;68405;47.190;27.558;2023-04-15T09:51:48;99293.55;;;13.19;71.15
78839;BME280;68405;47.190;27.558;2023-04-15T09:54:23;99287.05;;;13.45;70.91
78839;BME280;68405;47.190;27.558;2023-04-15T09:56:54;99279.85;;;13.59;70.06
78839;BME280;68405;47.190;27.558;2023-04-15T09:59:26;99278.21;;;13.79;69.64
78839;BME280;68405;47.190;27.558;2023-04-15T10:01:58;99289.30;;;14.14;68.76
78839;BME280;68405;47.190;27.558;2023-04-15T10:04:30;99288.58;;;14.35;68.08
78839;BME280;68405;47.190;27.558;2023-04-15T10:07:04;99287.22;;;14.61;67.38
78839;BME280;68405;47.190;27.558;2023-04-15T10:09:36;99287.79;;;14.72;67.88
78839;BME280;68405;47.190;27.558;2023-04-15T10:12:09;99285.66;;;14.78;66.55
78839;BME280;68405;47.190;27.558;2023-04-15T10:14:43;99289.25;;;14.44;66.23
78839;BME280;68405;47.190;27.558;2023-04-15T10:17:19;99292.44;;;14.38;67.15
78839;BME280;68405;47.190;27.558;2023-04-15T10:19:53;99297.07;;;14.27;66.95
78839;BME280;68405;47.190;27.558;2023-04-15T10:22:27;99302.23;;;14.10;67.11
78839;BME280;68405;47.190;27.558;2023-04-15T10:24:59;99306.94;;;13.74;67.82
78839;BME280;68405;47.190;27.558;2023-04-15T10:27:31;99305.11;;;13.44;68.83
78839;BME280;68405;47.190;27.558;2023-04-15T10:30:04;99298.60;;;13.49;69.08
78839;BME280;68405;47.190;27.558;2023-04-15T10:32:37;99297.58;;;13.54;68.86
78839;BME280;68405;47.190;27.558;2023-04-15T10:35:10;99288.45;;;13.39;69.24
78839;BME280;68405;47.190;27.558;2023-04-15T10:37:42;99279.62;;;13.16;69.85
78839;BME280;68405;47.190;27.558;2023-04-15T10:40:27;99277.89;;;13.18;70.09
78839;BME280;68405;47.190;27.558;2023-04-15T10:43:01;99263.80;;;13.18;70.13
78839;BME280;68405;47.190;27.558;2023-04-15T10:45:35;99253.66;;;13.28;70.16
78839;BME280;68405;47.190;27.558;2023-04-15T10:48:08;99257.59;;;13.23;70.22
78839;BME280;68405;47.190;27.558;2023-04-15T10:50:40;99274.15;;;13.23;69.99
78839;BME280;68405;47.190;27.558;2023-04-15T10:53:30;99281.54;;;13.09;70.60
78839;BME280;68405;47.190;27.558;2023-04-15T10:56:02;99278.98;;;13.08;70.77
78839;BME280;68405;47.190;27.558;2023-04-15T10:58:42;99269.39;;;12.95;71.28
78839;BME280;68405;47.190;27.558;2023-04-15T11:01:14;99261.09;;;12.90;71.19
78839;BME280;68405;47.190;27.558;2023-04-15T11:03:46;99255.47;;;12.91;71.55
78839;BME280;68405;47.190;27.558;2023-04-15T11:06:18;99264.86;;;12.95;71.52
78839;BME280;68405;47.190;27.558;2023-04-15T11:08:58;99272.07;;;12.97;71.18
78839;BME280;68405;47.190;27.558;2023-04-15T11:12:05;99274.75;;;12.83;71.89
78839;BME280;68405;47.190;27.558;2023-04-15T11:14:42;99257.86;;;13.05;71.44
78839;BME280;68405;47.190;27.558;2023-04-15T11:17:13;99249.54;;;13.36;70.50
78839;BME280;68405;47.190;27.558;2023-04-15T11:19:45;99258.22;;;13.62;69.63
78839;BME280;68405;47.190;27.558;2023-04-15T11:22:16;99265.88;;;13.65;68.96
78839;BME280;68405;47.190;27.558;2023-04-15T11:24:51;99267.42;;;13.60;69.24
78839;BME280;68405;47.190;27.558;2023-04-15T11:27:23;99260.59;;;13.79;68.63
78839;BME280;68405;47.190;27.558;2023-04-15T11:29:55;99254.80;;;13.85;68.22
78839;BME280;68405;47.190;27.558;2023-04-15T11:32:26;99253.01;;;13.80;68.36
78839;BME280;68405;47.190;27.558;2023-04-15T11:34:58;99250.67;;;14.05;68.30
78839;BME280;68405;47.190;27.558;2023-04-15T11:37:30;99249.84;;;14.25;67.39
78839;BME280;68405;47.190;27.558;2023-04-15T11:40:07;99252.23;;;14.32;66.29
78839;BME280;68405;47.190;27.558;2023-04-15T11:42:39;99256.17;;;14.97;64.87
78839;BME280;68405;47.190;27.558;2023-04-15T11:45:13;99255.70;;;15.43;63.58
78839;BME280;68405;47.190;27.558;2023-04-15T11:47:45;99254.10;;;15.89;61.40
78839;BME280;68405;47.190;27.558;2023-04-15T11:50:17;99256.16;;;16.45;60.65
78839;BME280;68405;47.190;27.558;2023-04-15T11:52:57;99250.73;;;16.80;59.03
78839;BME280;68405;47.190;27.558;2023-04-15T11:55:29;99250.19;;;17.28;57.57
78839;BME280;68405;47.190;27.558;2023-04-15T11:58:12;99250.09;;;17.19;57.51
78839;BME280;68405;47.190;27.558;2023-04-15T12:00:47;99244.67;;;17.34;57.62
78839;BME280;68405;47.190;27.558;2023-04-15T12:03:22;99240.99;;;17.77;57.63
78839;BME280;68405;47.190;27.558;2023-04-15T12:06:13;99245.48;;;18.08;55.93
78839;BME280;68405;47.190;27.558;2023-04-15T12:09:09;99244.39;;;18.18;54.93
78839;BME280;68405;47.190;27.558;2023-04-15T12:11:48;99243.89;;;18.29;55.88
78839;BME280;68405;47.190;27.558;2023-04-15T12:14:26;99252.59;;;17.57;54.62
78839;BME280;68405;47.190;27.558;2023-04-15T12:17:01;99251.81;;;17.46;55.48
78839;BME280;68405;47.190;27.558;2023-04-15T12:19:37;99260.86;;;17.60;54.95
78839;BME280;68405;47.190;27.558;2023-04-15T12:22:12;99250.54;;;17.25;55.79
78839;BME280;68405;47.190;27.558;2023-04-15T12:24:45;99244.10;;;17.34;56.23
78839;BME280;68405;47.190;27.558;2023-04-15T12:27:18;99238.40;;;17.45;56.00
78839;BME280;68405;47.190;27.558;2023-04-15T12:29:50;99243.77;;;17.44;55.91
78839;BME280;68405;47.190;27.558;2023-04-15T12:32:21;99236.45;;;17.72;55.73
78839;BME280;68405;47.190;27.558;2023-04-15T12:34:54;99229.61;;;17.71;55.29
78839;BME280;68405;47.190;27.558;2023-04-15T12:37:25;99230.18;;;17.68;55.75
78839;BME280;68405;47.190;27.558;2023-04-15T12:39:57;99236.39;;;17.39;56.00
78839;BME280;68405;47.190;27.558;2023-04-15T12:42:28;99242.55;;;16.94;56.18
78839;BME280;68405;47.190;27.558;2023-04-15T12:45:00;99242.83;;;17.08;56.73
78839;BME280;68405;47.190;27.558;2023-04-15T12:47:32;99245.81;;;16.90;57.01
78839;BME280;68405;47.190;27.558;2023-04-15T12:50:05;99247.90;;;16.45;58.10
78839;BME280;68405;47.190;27.558;2023-04-15T12:52:37;99258.17;;;16.25;58.60
78839;BME280;68405;47.190;27.558;2023-04-15T12:55:10;99264.35;;;16.35;58.80
78839;BME280;68405;47.190;27.558;2023-04-15T12:57:41;99271.11;;;16.15;59.31
78839;BME280;68405;47.190;27.558;2023-04-15T13:00:15;99264.02;;;16.22;59.73
78839;BME280;68405;47.190;27.558;2023-04-15T13:02:46;99268.67;;;16.02;60.44
78839;BME280;68405;47.190;27.558;2023-04-15T13:05:18;99268.69;;;15.89;60.53
78839;BME280;68405;47.190;27.558;2023-04-15T13:07:49;99266.33;;;15.57;60.70
78839;BME280;68405;47.190;27.558;2023-04-15T13:10:21;99261.23;;;15.60;61.20
78839;BME280;68405;47.190;27.558;2023-04-15T13:12:52;99256.23;;;15.78;61.18
78839;BME280;68405;47.190;27.558;2023-04-15T13:15:25;99261.61;;;16.08;60.29
78839;BME280;68405;47.190;27.558;2023-04-15T13:17:57;99250.51;;;16.33;60.09
78839;BME280;68405;47.190;27.558;2023-04-15T13:20:28;99255.30;;;16.47;59.10
78839;BME280;68405;47.190;27.558;2023-04-15T13:23:00;99254.80;;;16.29;59.15